sensor_id;sensor_type;location;lat;lon;timestamp;P1;durP1;ratioP1;P2;durP2;ratioP2
13590;SDS011;6866;50.778;7.206;2023-02-28T00:00:26;13.63;;;5.53;;
13590;SDS011;6866;50.778;7.206;2023-02-28T00:02:52;11.70;;;4.57;;
13590;SDS011;6866;50.778;7.206;2023-02-28T00:05:19;10.93;;;4.45;;
13590;SDS011;6866;50.778;7.206;2023-02-28T00:07:47;9.27;;;4.30;;
13590;SDS011;6866;50.778;7.206;2023-02-28T00:10:15;10.15;;;3.88;;
13590;SDS011;6866;50.778;7.206;2023-02-28T00:12:45;10.55;;;4.35;;
13590;SDS011;6866;50.778;7.206;2023-02-28T00:15:14;14.32;;;4.38;;
13590;SDS011;6866;50.778;7.206;2023-02-28T00:17:40;8.13;;;3.40;;
13590;SDS011;6866;50.778;7.206;2023-02-28T00:20:06;10.27;;;3.97;;
13590;SDS011;6866;50.778;7.206;2023-02-28T00:22:37;8.77;;;3.72;;
13590;SDS011;6866;50.778;7.206;2023-02-28T00:25:04;8.23;;;3.60;;
13590;SDS011;6866;50.778;7.206;2023-02-28T00:27:32;9.13;;;3.78;;
13590;SDS011;6866;50.778;7.206;2023-02-28T00:29:58;7.03;;;3.30;;
13590;SDS011;6866;50.778;7.206;2023-02-28T00:32:24;13.05;;;4.38;;
13590;SDS011;6866;50.778;7.206;2023-02-28T00:34:50;5.82;;;3.25;;
13590;SDS011;6866;50.778;7.206;2023-02-28T00:37:15;5.90;;;3.00;;
13590;SDS011;6866;50.778;7.206;2023-02-28T00:39:41;8.77;;;2.83;;
13590;SDS011;6866;50.778;7.206;2023-02-28T00:42:07;7.32;;;3.60;;
13590;SDS011;6866;50.778;7.206;2023-02-28T00:44:33;8.57;;;3.45;;
13590;SDS011;6866;50.778;7.206;2023-02-28T00:46:59;7.13;;;3.33;;
13590;SDS011;6866;50.778;7.206;2023-02-28T00:49:26;7.80;;;3.70;;
13590;SDS011;6866;50.778;7.206;2023-02-28T00:51:52;9.05;;;3.65;;
13590;SDS011;6866;50.778;7.206;2023-02-28T00:54:19;8.80;;;3.47;;
13590;SDS011;6866;50.778;7.206;2023-02-28T00:56:44;10.68;;;3.30;;
13590;SDS011;6866;50.778;7.206;2023-02-28T00:59:13;9.52;;;3.47;;
13590;SDS011;6866;50.778;7.206;2023-02-28T01:01:40;8.63;;;3.47;;
13590;SDS011;6866;50.778;7.206;2023-02-28T01:04:05;7.78;;;3.30;;
13590;SDS011;6866;50.778;7.206;2023-02-28T01:06:31;8.35;;;3.40;;
13590;SDS011;6866;50.778;7.206;2023-02-28T01:08:57;8.70;;;3.80;;
13590;SDS011;6866;50.778;7.206;2023-02-28T01:11:23;7.03;;;3.33;;
13590;SDS011;6866;50.778;7.206;2023-02-28T01:13:49;8.35;;;3.47;;
13590;SDS011;6866;50.778;7.206;2023-02-28T01:16:14;11.68;;;3.38;;
13590;SDS011;6866;50.778;7.206;2023-02-28T01:18:40;9.27;;;3.40;;
13590;SDS011;6866;50.778;7.206;2023-02-28T01:21:06;6.82;;;3.25;;
13590;SDS011;6866;50.778;7.206;2023-02-28T01:23:37;6.75;;;3.03;;
13590;SDS011;6866;50.778;7.206;2023-02-28T01:26:04;7.85;;;3.20;;
13590;SDS011;6866;50.778;7.206;2023-02-28T01:28:34;8.05;;;2.80;;
13590;SDS011;6866;50.778;7.206;2023-02-28T01:31:00;7.63;;;3.10;;
13590;SDS011;6866;50.778;7.206;2023-02-28T01:33:26;6.25;;;2.80;;
13590;SDS011;6866;50.778;7.206;2023-02-28T01:36:25;6.85;;;3.20;;
13590;SDS011;6866;50.778;7.206;2023-02-28T01:38:45;6.03;;;3.00;;
13590;SDS011;6866;50.778;7.206;2023-02-28T01:41:19;5.68;;;3.00;;
13590;SDS011;6866;50.778;7.206;2023-02-28T01:46:12;7.03;;;3.22;;
13590;SDS011;6866;50.778;7.206;2023-02-28T01:48:43;6.78;;;3.05;;
13590;SDS011;6866;50.778;7.206;2023-02-28T01:51:14;9.25;;;3.38;;
13590;SDS011;6866;50.778;7.206;2023-02-28T01:53:44;6.43;;;2.90;;
13590;SDS011;6866;50.778;7.206;2023-02-28T01:56:13;9.23;;;3.25;;
13590;SDS011;6866;50.778;7.206;2023-02-28T01:58:46;8.20;;;3.33;;
13590;SDS011;6866;50.778;7.206;2023-02-28T02:03:51;8.52;;;3.00;;
13590;SDS011;6866;50.778;7.206;2023-02-28T02:06:25;8.40;;;2.90;;
13590;SDS011;6866;50.778;7.206;2023-02-28T02:09:02;9.38;;;3.10;;
13590;SDS011;6866;50.778;7.206;2023-02-28T02:11:27;9.23;;;2.95;;
13590;SDS011;6866;50.778;7.206;2023-02-28T02:14:01;9.80;;;3.22;;
13590;SDS011;6866;50.778;7.206;2023-02-28T02:25:02;7.70;;;3.03;;
13590;SDS011;6866;50.778;7.206;2023-02-28T02:27:42;8.05;;;3.20;;
13590;SDS011;6866;50.778;7.206;2023-02-28T02:35:59;6.55;;;3.10;;
13590;SDS011;6866;50.778;7.206;2023-02-28T02:38:50;6.43;;;3.03;;
13590;SDS011;6866;50.778;7.206;2023-02-28T02:41:23;7.07;;;3.20;;
13590;SDS011;6866;50.778;7.206;2023-02-28T02:46:40;9.98;;;3.25;;
13590;SDS011;6866;50.778;7.206;2023-02-28T02:49:10;7.53;;;3.10;;
13590;SDS011;6866;50.778;7.206;2023-02-28T02:51:41;5.93;;;3.08;;
13590;SDS011;6866;50.778;7.206;2023-02-28T02:54:16;5.75;;;3.00;;
13590;SDS011;6866;50.778;7.206;2023-02-28T02:56:46;9.80;;;3.40;;
13590;SDS011;6866;50.778;7.206;2023-02-28T02:59:13;8.40;;;3.20;;
13590;SDS011;6866;50.778;7.206;2023-02-28T03:01:46;10.15;;;2.80;;
13590;SDS011;6866;50.778;7.206;2023-02-28T03:04:18;6.05;;;2.75;;
13590;SDS011;6866;50.778;7.206;2023-02-28T03:06:46;5.72;;;2.75;;
13590;SDS011;6866;50.778;7.206;2023-02-28T03:09:12;9.80;;;2.97;;
13590;SDS011;6866;50.778;7.206;2023-02-28T03:11:38;7.45;;;3.00;;
13590;SDS011;6866;50.778;7.206;2023-02-28T03:22:39;6.43;;;3.30;;
13590;SDS011;6866;50.778;7.206;2023-02-28T03:25:17;8.15;;;3.00;;
13590;SDS011;6866;50.778;7.206;2023-02-28T03:30:59;6.80;;;3.00;;
13590;SDS011;6866;50.778;7.206;2023-02-28T03:33:36;7.53;;;3.08;;
13590;SDS011;6866;50.778;7.206;2023-02-28T03:36:17;7.68;;;3.50;;
13590;SDS011;6866;50.778;7.206;2023-02-28T03:38:48;6.88;;;2.92;;
13590;SDS011;6866;50.778;7.206;2023-02-28T03:41:16;6.60;;;3.00;;
13590;SDS011;6866;50.778;7.206;2023-02-28T03:43:49;9.80;;;3.03;;
13590;SDS011;6866;50.778;7.206;2023-02-28T03:46:21;8.00;;;2.95;;
13590;SDS011;6866;50.778;7.206;2023-02-28T03:48:55;6.07;;;2.88;;
13590;SDS011;6866;50.778;7.206;2023-02-28T03:51:41;6.90;;;2.65;;
13590;SDS011;6866;50.778;7.206;2023-02-28T03:54:12;6.25;;;2.60;;
13590;SDS011;6866;50.778;7.206;2023-02-28T03:56:43;5.80;;;2.50;;
13590;SDS011;6866;50.778;7.206;2023-02-28T03:59:37;7.55;;;2.72;;
13590;SDS011;6866;50.778;7.206;2023-02-28T04:02:06;6.07;;;2.47;;
13590;SDS011;6866;50.778;7.206;2023-02-28T04:04:32;7.78;;;2.88;;
13590;SDS011;6866;50.778;7.206;2023-02-28T04:07:03;6.72;;;2.72;;
13590;SDS011;6866;50.778;7.206;2023-02-28T04:09:31;6.05;;;2.65;;
13590;SDS011;6866;50.778;7.206;2023-02-28T04:11:56;6.65;;;2.65;;
13590;SDS011;6866;50.778;7.206;2023-02-28T04:14:22;5.55;;;2.67;;
13590;SDS011;6866;50.778;7.206;2023-02-28T04:16:48;6.65;;;2.75;;
13590;SDS011;6866;50.778;7.206;2023-02-28T04:19:15;5.65;;;2.65;;
13590;SDS011;6866;50.778;7.206;2023-02-28T04:21:42;5.18;;;2.67;;
13590;SDS011;6866;50.778;7.206;2023-02-28T04:24:13;7.45;;;2.65;;
13590;SDS011;6866;50.778;7.206;2023-02-28T04:26:50;7.88;;;2.67;;
13590;SDS011;6866;50.778;7.206;2023-02-28T04:29:22;5.28;;;2.70;;
13590;SDS011;6866;50.778;7.206;2023-02-28T04:31:57;5.18;;;2.47;;
13590;SDS011;6866;50.778;7.206;2023-02-28T04:34:24;7.85;;;2.95;;
13590;SDS011;6866;50.778;7.206;2023-02-28T04:36:54;7.60;;;2.80;;
13590;SDS011;6866;50.778;7.206;2023-02-28T04:39:21;7.05;;;2.72;;
13590;SDS011;6866;50.778;7.206;2023-02-28T04:41:47;6.32;;;2.90;;
13590;SDS011;6866;50.778;7.206;2023-02-28T04:44:13;6.55;;;2.67;;
13590;SDS011;6866;50.778;7.206;2023-02-28T04:46:39;7.45;;;2.80;;
13590;SDS011;6866;50.778;7.206;2023-02-28T04:49:05;8.13;;;2.92;;
13590;SDS011;6866;50.778;7.206;2023-02-28T04:51:30;6.20;;;2.97;;
13590;SDS011;6866;50.778;7.206;2023-02-28T04:53:56;6.97;;;2.78;;
13590;SDS011;6866;50.778;7.206;2023-02-28T04:56:22;5.90;;;2.63;;
13590;SDS011;6866;50.778;7.206;2023-02-28T04:58:48;6.32;;;2.58;;
13590;SDS011;6866;50.778;7.206;2023-02-28T05:03:56;7.55;;;2.80;;
13590;SDS011;6866;50.778;7.206;2023-02-28T05:06:23;5.60;;;2.50;;
13590;SDS011;6866;50.778;7.206;2023-02-28T05:08:51;6.53;;;2.88;;
13590;SDS011;6866;50.778;7.206;2023-02-28T05:11:19;4.35;;;2.60;;
13590;SDS011;6866;50.778;7.206;2023-02-28T05:13:47;5.45;;;2.67;;
13590;SDS011;6866;50.778;7.206;2023-02-28T05:16:13;7.53;;;2.70;;
13590;SDS011;6866;50.778;7.206;2023-02-28T05:18:39;6.28;;;2.65;;
13590;SDS011;6866;50.778;7.206;2023-02-28T05:21:05;6.88;;;2.78;;
13590;SDS011;6866;50.778;7.206;2023-02-28T05:23:31;5.35;;;2.70;;
13590;SDS011;6866;50.778;7.206;2023-02-28T05:25:57;4.43;;;2.53;;
13590;SDS011;6866;50.778;7.206;2023-02-28T05:28:23;4.72;;;2.58;;
13590;SDS011;6866;50.778;7.206;2023-02-28T05:30:48;8.50;;;2.70;;
13590;SDS011;6866;50.778;7.206;2023-02-28T05:33:14;7.93;;;3.05;;
13590;SDS011;6866;50.778;7.206;2023-02-28T05:35:40;7.00;;;2.40;;
13590;SDS011;6866;50.778;7.206;2023-02-28T05:38:07;7.90;;;2.83;;
13590;SDS011;6866;50.778;7.206;2023-02-28T05:40:33;9.30;;;3.08;;
13590;SDS011;6866;50.778;7.206;2023-02-28T05:42:58;7.60;;;3.25;;
13590;SDS011;6866;50.778;7.206;2023-02-28T05:45:24;7.10;;;2.88;;
13590;SDS011;6866;50.778;7.206;2023-02-28T05:47:53;7.78;;;2.85;;
13590;SDS011;6866;50.778;7.206;2023-02-28T05:50:19;7.72;;;2.97;;
13590;SDS011;6866;50.778;7.206;2023-02-28T05:52:48;9.48;;;3.47;;
13590;SDS011;6866;50.778;7.206;2023-02-28T05:55:15;8.18;;;2.90;;
13590;SDS011;6866;50.778;7.206;2023-02-28T05:57:40;10.60;;;3.67;;
13590;SDS011;6866;50.778;7.206;2023-02-28T06:00:06;7.60;;;3.42;;
13590;SDS011;6866;50.778;7.206;2023-02-28T06:02:32;10.57;;;3.78;;
13590;SDS011;6866;50.778;7.206;2023-02-28T06:04:57;9.35;;;3.25;;
13590;SDS011;6866;50.778;7.206;2023-02-28T06:07:23;9.43;;;3.90;;
13590;SDS011;6866;50.778;7.206;2023-02-28T06:09:48;10.85;;;4.13;;
13590;SDS011;6866;50.778;7.206;2023-02-28T06:12:14;11.20;;;4.20;;
13590;SDS011;6866;50.778;7.206;2023-02-28T06:14:39;10.18;;;4.22;;
13590;SDS011;6866;50.778;7.206;2023-02-28T06:17:05;8.93;;;3.70;;
13590;SDS011;6866;50.778;7.206;2023-02-28T06:19:31;8.93;;;3.70;;
13590;SDS011;6866;50.778;7.206;2023-02-28T06:21:57;10.02;;;3.20;;
13590;SDS011;6866;50.778;7.206;2023-02-28T06:24:23;5.95;;;2.92;;
13590;SDS011;6866;50.778;7.206;2023-02-28T06:26:52;9.40;;;3.10;;
13590;SDS011;6866;50.778;7.206;2023-02-28T06:29:18;5.97;;;2.90;;
13590;SDS011;6866;50.778;7.206;2023-02-28T06:31:44;8.13;;;3.03;;
13590;SDS011;6866;50.778;7.206;2023-02-28T06:34:11;6.10;;;3.03;;
13590;SDS011;6866;50.778;7.206;2023-02-28T06:36:37;7.05;;;3.00;;
13590;SDS011;6866;50.778;7.206;2023-02-28T06:39:04;6.32;;;3.17;;
13590;SDS011;6866;50.778;7.206;2023-02-28T06:41:30;9.10;;;3.50;;
13590;SDS011;6866;50.778;7.206;2023-02-28T06:43:56;7.80;;;3.28;;
13590;SDS011;6866;50.778;7.206;2023-02-28T06:46:22;6.32;;;3.17;;
13590;SDS011;6866;50.778;7.206;2023-02-28T06:48:48;5.55;;;2.90;;
13590;SDS011;6866;50.778;7.206;2023-02-28T06:51:15;6.15;;;3.17;;
13590;SDS011;6866;50.778;7.206;2023-02-28T06:53:42;7.35;;;3.42;;
13590;SDS011;6866;50.778;7.206;2023-02-28T06:56:09;8.80;;;3.38;;
13590;SDS011;6866;50.778;7.206;2023-02-28T06:58:37;8.63;;;3.67;;
13590;SDS011;6866;50.778;7.206;2023-02-28T07:01:04;8.68;;;3.90;;
13590;SDS011;6866;50.778;7.206;2023-02-28T07:03:31;10.43;;;4.30;;
13590;SDS011;6866;50.778;7.206;2023-02-28T07:05:56;10.25;;;3.65;;
13590;SDS011;6866;50.778;7.206;2023-02-28T07:08:23;12.60;;;4.13;;
13590;SDS011;6866;50.778;7.206;2023-02-28T07:10:55;10.20;;;4.10;;
13590;SDS011;6866;50.778;7.206;2023-02-28T07:13:22;12.20;;;4.20;;
13590;SDS011;6866;50.778;7.206;2023-02-28T07:15:55;14.55;;;4.13;;
13590;SDS011;6866;50.778;7.206;2023-02-28T07:20:46;9.50;;;4.15;;
13590;SDS011;6866;50.778;7.206;2023-02-28T07:23:12;12.75;;;4.50;;
13590;SDS011;6866;50.778;7.206;2023-02-28T07:25:37;9.10;;;4.30;;
13590;SDS011;6866;50.778;7.206;2023-02-28T07:28:04;9.68;;;3.80;;
13590;SDS011;6866;50.778;7.206;2023-02-28T07:30:29;11.63;;;3.60;;
13590;SDS011;6866;50.778;7.206;2023-02-28T07:32:55;9.68;;;3.85;;
13590;SDS011;6866;50.778;7.206;2023-02-28T07:35:21;11.13;;;4.22;;
13590;SDS011;6866;50.778;7.206;2023-02-28T07:37:47;9.05;;;3.90;;
13590;SDS011;6866;50.778;7.206;2023-02-28T07:40:13;7.90;;;3.60;;
13590;SDS011;6866;50.778;7.206;2023-02-28T07:42:42;12.25;;;4.72;;
13590;SDS011;6866;50.778;7.206;2023-02-28T07:45:08;15.48;;;4.47;;
13590;SDS011;6866;50.778;7.206;2023-02-28T07:47:36;10.35;;;4.47;;
13590;SDS011;6866;50.778;7.206;2023-02-28T07:50:02;12.05;;;4.20;;
13590;SDS011;6866;50.778;7.206;2023-02-28T07:52:28;11.90;;;5.20;;
13590;SDS011;6866;50.778;7.206;2023-02-28T07:54:54;14.40;;;4.80;;
13590;SDS011;6866;50.778;7.206;2023-02-28T07:57:19;19.58;;;5.80;;
13590;SDS011;6866;50.778;7.206;2023-02-28T07:59:45;23.45;;;8.27;;
13590;SDS011;6866;50.778;7.206;2023-02-28T08:02:12;16.92;;;6.70;;
13590;SDS011;6866;50.778;7.206;2023-02-28T08:04:39;17.77;;;5.82;;
13590;SDS011;6866;50.778;7.206;2023-02-28T08:07:05;13.70;;;5.75;;
13590;SDS011;6866;50.778;7.206;2023-02-28T08:09:30;11.60;;;4.13;;
13590;SDS011;6866;50.778;7.206;2023-02-28T08:11:56;8.02;;;3.42;;
13590;SDS011;6866;50.778;7.206;2023-02-28T08:14:22;7.57;;;3.20;;
13590;SDS011;6866;50.778;7.206;2023-02-28T08:16:47;6.85;;;2.88;;
13590;SDS011;6866;50.778;7.206;2023-02-28T08:19:13;7.70;;;3.00;;
13590;SDS011;6866;50.778;7.206;2023-02-28T08:21:38;5.45;;;2.80;;
13590;SDS011;6866;50.778;7.206;2023-02-28T08:24:05;7.07;;;2.67;;
13590;SDS011;6866;50.778;7.206;2023-02-28T08:26:31;7.22;;;2.58;;
13590;SDS011;6866;50.778;7.206;2023-02-28T08:28:56;4.80;;;2.70;;
13590;SDS011;6866;50.778;7.206;2023-02-28T08:31:22;10.52;;;2.78;;
13590;SDS011;6866;50.778;7.206;2023-02-28T08:33:48;6.57;;;2.20;;
13590;SDS011;6866;50.778;7.206;2023-02-28T08:36:16;6.20;;;2.42;;
13590;SDS011;6866;50.778;7.206;2023-02-28T08:38:42;5.13;;;2.35;;
13590;SDS011;6866;50.778;7.206;2023-02-28T08:41:09;9.20;;;2.15;;
13590;SDS011;6866;50.778;7.206;2023-02-28T08:43:36;5.10;;;2.70;;
13590;SDS011;6866;50.778;7.206;2023-02-28T08:46:03;6.88;;;2.40;;
13590;SDS011;6866;50.778;7.206;2023-02-28T08:48:30;3.85;;;2.30;;
13590;SDS011;6866;50.778;7.206;2023-02-28T08:53:38;3.92;;;2.17;;
13590;SDS011;6866;50.778;7.206;2023-02-28T08:56:06;3.83;;;1.95;;
13590;SDS011;6866;50.778;7.206;2023-02-28T08:58:39;3.78;;;2.00;;
13590;SDS011;6866;50.778;7.206;2023-02-28T09:01:24;3.97;;;1.63;;
13590;SDS011;6866;50.778;7.206;2023-02-28T09:03:54;3.80;;;1.83;;
13590;SDS011;6866;50.778;7.206;2023-02-28T09:06:22;4.65;;;1.90;;
13590;SDS011;6866;50.778;7.206;2023-02-28T09:08:49;3.53;;;1.50;;
13590;SDS011;6866;50.778;7.206;2023-02-28T09:11:15;4.13;;;1.52;;
13590;SDS011;6866;50.778;7.206;2023-02-28T09:13:41;3.00;;;1.60;;
13590;SDS011;6866;50.778;7.206;2023-02-28T09:16:07;2.40;;;1.45;;
13590;SDS011;6866;50.778;7.206;2023-02-28T09:18:35;3.33;;;1.45;;
13590;SDS011;6866;50.778;7.206;2023-02-28T09:21:05;3.22;;;1.60;;
13590;SDS011;6866;50.778;7.206;2023-02-28T09:23:33;3.63;;;1.92;;
13590;SDS011;6866;50.778;7.206;2023-02-28T09:26:00;4.53;;;1.70;;
13590;SDS011;6866;50.778;7.206;2023-02-28T09:28:25;3.08;;;1.90;;
13590;SDS011;6866;50.778;7.206;2023-02-28T09:30:52;3.83;;;1.83;;
13590;SDS011;6866;50.778;7.206;2023-02-28T09:33:20;4.30;;;1.77;;
13590;SDS011;6866;50.778;7.206;2023-02-28T09:35:46;6.05;;;1.90;;
13590;SDS011;6866;50.778;7.206;2023-02-28T09:38:13;3.75;;;1.80;;
13590;SDS011;6866;50.778;7.206;2023-02-28T09:41:01;6.72;;;1.98;;
13590;SDS011;6866;50.778;7.206;2023-02-28T09:43:29;4.05;;;2.05;;
13590;SDS011;6866;50.778;7.206;2023-02-28T09:48:34;3.35;;;1.50;;
13590;SDS011;6866;50.778;7.206;2023-02-28T09:51:11;4.07;;;1.45;;
13590;SDS011;6866;50.778;7.206;2023-02-28T09:53:51;4.40;;;1.75;;
13590;SDS011;6866;50.778;7.206;2023-02-28T09:56:19;3.63;;;1.52;;
13590;SDS011;6866;50.778;7.206;2023-02-28T10:04:11;3.20;;;1.60;;
13590;SDS011;6866;50.778;7.206;2023-02-28T10:10:04;6.07;;;1.95;;
13590;SDS011;6866;50.778;7.206;2023-02-28T10:12:38;4.15;;;1.77;;
13590;SDS011;6866;50.778;7.206;2023-02-28T10:15:12;4.75;;;1.75;;
13590;SDS011;6866;50.778;7.206;2023-02-28T10:17:40;4.75;;;1.95;;
13590;SDS011;6866;50.778;7.206;2023-02-28T10:25:27;3.78;;;1.45;;
13590;SDS011;6866;50.778;7.206;2023-02-28T10:27:53;3.88;;;2.08;;
13590;SDS011;6866;50.778;7.206;2023-02-28T10:30:25;5.82;;;1.80;;
13590;SDS011;6866;50.778;7.206;2023-02-28T10:32:51;3.88;;;1.67;;
13590;SDS011;6866;50.778;7.206;2023-02-28T10:35:25;4.57;;;2.10;;
13590;SDS011;6866;50.778;7.206;2023-02-28T10:37:53;4.75;;;1.50;;
13590;SDS011;6866;50.778;7.206;2023-02-28T10:46:02;4.88;;;1.90;;
13590;SDS011;6866;50.778;7.206;2023-02-28T10:51:14;4.03;;;1.83;;
13590;SDS011;6866;50.778;7.206;2023-02-28T10:56:20;6.07;;;1.88;;
13590;SDS011;6866;50.778;7.206;2023-02-28T11:04:00;5.20;;;1.70;;
13590;SDS011;6866;50.778;7.206;2023-02-28T11:06:30;4.70;;;1.67;;
13590;SDS011;6866;50.778;7.206;2023-02-28T11:09:15;2.88;;;1.55;;
13590;SDS011;6866;50.778;7.206;2023-02-28T11:12:04;3.83;;;1.65;;
13590;SDS011;6866;50.778;7.206;2023-02-28T11:14:37;6.05;;;1.50;;
13590;SDS011;6866;50.778;7.206;2023-02-28T11:17:23;4.18;;;1.80;;
13590;SDS011;6866;50.778;7.206;2023-02-28T11:19:52;3.20;;;1.55;;
13590;SDS011;6866;50.778;7.206;2023-02-28T11:22:21;5.63;;;1.80;;
13590;SDS011;6866;50.778;7.206;2023-02-28T11:24:53;3.05;;;1.55;;
13590;SDS011;6866;50.778;7.206;2023-02-28T11:27:26;3.53;;;1.60;;
13590;SDS011;6866;50.778;7.206;2023-02-28T11:30:24;4.07;;;1.80;;
13590;SDS011;6866;50.778;7.206;2023-02-28T11:35:55;3.45;;;1.50;;
13590;SDS011;6866;50.778;7.206;2023-02-28T11:38:26;5.13;;;1.80;;
13590;SDS011;6866;50.778;7.206;2023-02-28T11:40:57;4.05;;;1.73;;
13590;SDS011;6866;50.778;7.206;2023-02-28T11:46:19;3.67;;;1.80;;
13590;SDS011;6866;50.778;7.206;2023-02-28T11:51:38;4.82;;;2.03;;
13590;SDS011;6866;50.778;7.206;2023-02-28T11:56:57;3.80;;;1.73;;
13590;SDS011;6866;50.778;7.206;2023-02-28T12:00:00;3.72;;;1.60;;
13590;SDS011;6866;50.778;7.206;2023-02-28T12:02:35;5.85;;;2.45;;
13590;SDS011;6866;50.778;7.206;2023-02-28T12:07:58;4.72;;;1.88;;
13590;SDS011;6866;50.778;7.206;2023-02-28T12:10:38;3.13;;;1.65;;
13590;SDS011;6866;50.778;7.206;2023-02-28T12:24:53;4.45;;;1.90;;
13590;SDS011;6866;50.778;7.206;2023-02-28T12:32:21;3.20;;;1.80;;
13590;SDS011;6866;50.778;7.206;2023-02-28T12:34:53;3.78;;;1.90;;
13590;SDS011;6866;50.778;7.206;2023-02-28T12:37:28;4.00;;;2.00;;
13590;SDS011;6866;50.778;7.206;2023-02-28T12:40:00;4.25;;;1.90;;
13590;SDS011;6866;50.778;7.206;2023-02-28T12:42:33;4.43;;;1.75;;
13590;SDS011;6866;50.778;7.206;2023-02-28T12:47:59;4.75;;;1.80;;
13590;SDS011;6866;50.778;7.206;2023-02-28T12:50:29;4.63;;;2.17;;
13590;SDS011;6866;50.778;7.206;2023-02-28T12:53:03;3.75;;;1.98;;
13590;SDS011;6866;50.778;7.206;2023-02-28T12:58:51;4.07;;;2.08;;
13590;SDS011;6866;50.778;7.206;2023-02-28T13:04:05;3.35;;;2.13;;
13590;SDS011;6866;50.778;7.206;2023-02-28T13:09:17;3.55;;;2.17;;
13590;SDS011;6866;50.778;7.206;2023-02-28T13:14:16;4.25;;;2.10;;
13590;SDS011;6866;50.778;7.206;2023-02-28T13:19:28;4.75;;;2.00;;
13590;SDS011;6866;50.778;7.206;2023-02-28T13:21:57;4.32;;;2.08;;
13590;SDS011;6866;50.778;7.206;2023-02-28T13:27:19;5.10;;;2.50;;
13590;SDS011;6866;50.778;7.206;2023-02-28T13:29:49;6.82;;;2.67;;
13590;SDS011;6866;50.778;7.206;2023-02-28T13:39:50;5.63;;;2.45;;
13590;SDS011;6866;50.778;7.206;2023-02-28T13:47:28;6.07;;;2.33;;
13590;SDS011;6866;50.778;7.206;2023-02-28T14:01:23;4.07;;;2.50;;
13590;SDS011;6866;50.778;7.206;2023-02-28T14:07:06;4.55;;;2.30;;
13590;SDS011;6866;50.778;7.206;2023-02-28T14:17:58;4.30;;;2.38;;
13590;SDS011;6866;50.778;7.206;2023-02-28T14:20:29;5.55;;;2.72;;
13590;SDS011;6866;50.778;7.206;2023-02-28T14:26:03;6.22;;;2.97;;
13590;SDS011;6866;50.778;7.206;2023-02-28T14:28:56;4.93;;;2.78;;
13590;SDS011;6866;50.778;7.206;2023-02-28T14:31:28;6.00;;;2.70;;
13590;SDS011;6866;50.778;7.206;2023-02-28T14:36:39;5.18;;;2.53;;
13590;SDS011;6866;50.778;7.206;2023-02-28T14:39:10;5.32;;;2.90;;
13590;SDS011;6866;50.778;7.206;2023-02-28T14:41:41;5.35;;;2.90;;
13590;SDS011;6866;50.778;7.206;2023-02-28T14:44:20;5.13;;;2.80;;
13590;SDS011;6866;50.778;7.206;2023-02-28T14:46:54;6.43;;;2.85;;
13590;SDS011;6866;50.778;7.206;2023-02-28T14:49:37;6.45;;;2.72;;
13590;SDS011;6866;50.778;7.206;2023-02-28T14:52:17;8.68;;;2.95;;
13590;SDS011;6866;50.778;7.206;2023-02-28T14:54:46;7.93;;;3.13;;
13590;SDS011;6866;50.778;7.206;2023-02-28T15:00:25;7.35;;;3.03;;
13590;SDS011;6866;50.778;7.206;2023-02-28T15:02:47;4.03;;;2.60;;
13590;SDS011;6866;50.778;7.206;2023-02-28T15:07:41;6.55;;;2.70;;
13590;SDS011;6866;50.778;7.206;2023-02-28T15:12:55;5.80;;;3.03;;
13590;SDS011;6866;50.778;7.206;2023-02-28T15:15:21;4.90;;;2.60;;
13590;SDS011;6866;50.778;7.206;2023-02-28T15:17:50;4.88;;;3.08;;
13590;SDS011;6866;50.778;7.206;2023-02-28T15:20:20;6.30;;;2.97;;
13590;SDS011;6866;50.778;7.206;2023-02-28T15:22:47;7.90;;;3.17;;
13590;SDS011;6866;50.778;7.206;2023-02-28T15:25:18;4.82;;;2.80;;
13590;SDS011;6866;50.778;7.206;2023-02-28T15:27:46;6.10;;;2.72;;
13590;SDS011;6866;50.778;7.206;2023-02-28T15:30:21;5.65;;;3.13;;
13590;SDS011;6866;50.778;7.206;2023-02-28T15:35:36;6.50;;;3.03;;
13590;SDS011;6866;50.778;7.206;2023-02-28T15:38:13;5.80;;;2.90;;
13590;SDS011;6866;50.778;7.206;2023-02-28T15:40:42;6.45;;;3.13;;
13590;SDS011;6866;50.778;7.206;2023-02-28T15:46:04;6.38;;;2.95;;
13590;SDS011;6866;50.778;7.206;2023-02-28T15:50:57;6.13;;;3.25;;
13590;SDS011;6866;50.778;7.206;2023-02-28T15:53:54;6.32;;;3.50;;
13590;SDS011;6866;50.778;7.206;2023-02-28T15:56:24;7.35;;;3.40;;
13590;SDS011;6866;50.778;7.206;2023-02-28T15:59:01;5.75;;;3.15;;
13590;SDS011;6866;50.778;7.206;2023-02-28T16:01:33;8.18;;;3.08;;
13590;SDS011;6866;50.778;7.206;2023-02-28T16:04:04;6.27;;;2.90;;
13590;SDS011;6866;50.778;7.206;2023-02-28T16:09:05;4.63;;;2.70;;
13590;SDS011;6866;50.778;7.206;2023-02-28T16:11:34;6.93;;;3.00;;
13590;SDS011;6866;50.778;7.206;2023-02-28T16:14:03;4.85;;;3.20;;
13590;SDS011;6866;50.778;7.206;2023-02-28T16:16:29;6.50;;;3.30;;
13590;SDS011;6866;50.778;7.206;2023-02-28T16:18:57;6.03;;;2.90;;
13590;SDS011;6866;50.778;7.206;2023-02-28T16:21:22;5.55;;;3.15;;
13590;SDS011;6866;50.778;7.206;2023-02-28T16:23:49;6.55;;;3.00;;
13590;SDS011;6866;50.778;7.206;2023-02-28T16:26:19;5.30;;;2.70;;
13590;SDS011;6866;50.778;7.206;2023-02-28T16:28:47;6.20;;;2.92;;
13590;SDS011;6866;50.778;7.206;2023-02-28T16:31:13;5.53;;;3.25;;
13590;SDS011;6866;50.778;7.206;2023-02-28T16:33:43;6.28;;;3.20;;
13590;SDS011;6866;50.778;7.206;2023-02-28T16:36:20;5.38;;;2.88;;
13590;SDS011;6866;50.778;7.206;2023-02-28T16:38:50;6.70;;;3.00;;
13590;SDS011;6866;50.778;7.206;2023-02-28T16:41:20;5.20;;;2.90;;
13590;SDS011;6866;50.778;7.206;2023-02-28T16:43:47;6.13;;;2.88;;
13590;SDS011;6866;50.778;7.206;2023-02-28T16:46:15;7.35;;;3.20;;
13590;SDS011;6866;50.778;7.206;2023-02-28T16:48:42;5.50;;;3.17;;
13590;SDS011;6866;50.778;7.206;2023-02-28T16:51:11;7.97;;;3.70;;
13590;SDS011;6866;50.778;7.206;2023-02-28T16:53:38;5.22;;;2.60;;
13590;SDS011;6866;50.778;7.206;2023-02-28T16:56:03;6.63;;;3.10;;
13590;SDS011;6866;50.778;7.206;2023-02-28T16:58:31;6.55;;;3.25;;
13590;SDS011;6866;50.778;7.206;2023-02-28T17:01:00;6.90;;;2.92;;
13590;SDS011;6866;50.778;7.206;2023-02-28T17:03:27;5.65;;;3.05;;
13590;SDS011;6866;50.778;7.206;2023-02-28T17:05:53;4.80;;;2.85;;
13590;SDS011;6866;50.778;7.206;2023-02-28T17:08:18;6.55;;;3.13;;
13590;SDS011;6866;50.778;7.206;2023-02-28T17:10:44;7.80;;;3.35;;
13590;SDS011;6866;50.778;7.206;2023-02-28T17:13:10;4.75;;;2.90;;
13590;SDS011;6866;50.778;7.206;2023-02-28T17:15:36;6.25;;;3.10;;
13590;SDS011;6866;50.778;7.206;2023-02-28T17:18:03;8.80;;;3.15;;
13590;SDS011;6866;50.778;7.206;2023-02-28T17:20:29;6.93;;;3.17;;
13590;SDS011;6866;50.778;7.206;2023-02-28T17:22:55;5.82;;;3.20;;
13590;SDS011;6866;50.778;7.206;2023-02-28T17:25:21;7.45;;;3.15;;
13590;SDS011;6866;50.778;7.206;2023-02-28T17:27:48;9.20;;;4.07;;
13590;SDS011;6866;50.778;7.206;2023-02-28T17:32:41;7.00;;;3.50;;
13590;SDS011;6866;50.778;7.206;2023-02-28T17:35:07;6.53;;;3.22;;
13590;SDS011;6866;50.778;7.206;2023-02-28T17:37:33;5.95;;;3.13;;
13590;SDS011;6866;50.778;7.206;2023-02-28T17:39:58;8.07;;;3.88;;
13590;SDS011;6866;50.778;7.206;2023-02-28T17:42:24;7.15;;;3.95;;
13590;SDS011;6866;50.778;7.206;2023-02-28T17:44:49;9.18;;;4.38;;
13590;SDS011;6866;50.778;7.206;2023-02-28T17:47:15;8.65;;;4.95;;
13590;SDS011;6866;50.778;7.206;2023-02-28T17:49:40;8.80;;;4.40;;
13590;SDS011;6866;50.778;7.206;2023-02-28T17:52:06;9.85;;;4.05;;
13590;SDS011;6866;50.778;7.206;2023-02-28T17:54:32;7.05;;;3.90;;
13590;SDS011;6866;50.778;7.206;2023-02-28T17:56:58;9.05;;;4.35;;
13590;SDS011;6866;50.778;7.206;2023-02-28T17:59:23;10.55;;;5.13;;
13590;SDS011;6866;50.778;7.206;2023-02-28T18:01:49;10.13;;;4.00;;
13590;SDS011;6866;50.778;7.206;2023-02-28T18:04:15;10.15;;;4.43;;
13590;SDS011;6866;50.778;7.206;2023-02-28T18:06:41;8.90;;;4.50;;
13590;SDS011;6866;50.778;7.206;2023-02-28T18:09:12;10.43;;;4.88;;
13590;SDS011;6866;50.778;7.206;2023-02-28T18:11:39;13.45;;;4.43;;
13590;SDS011;6866;50.778;7.206;2023-02-28T18:14:10;10.32;;;4.72;;
13590;SDS011;6866;50.778;7.206;2023-02-28T18:16:35;8.68;;;4.57;;
13590;SDS011;6866;50.778;7.206;2023-02-28T18:19:02;9.20;;;4.93;;